Weather reports worldwide

Advertisment
South Newington, United Kingdom (99166): temperature & dewpoint: 17.02.2019 14:00:00 - 23.02.2019 14:00:00 (GMT)South Newington, United Kingdom (99166): temperature -20cm & temperature -100cm: 17.02.2019 14:00:00 - 23.02.2019 14:00:00 (GMT)South Newington, United Kingdom (99166): precipitation: 17.02.2019 14:00:00 - 23.02.2019 14:00:00 (GMT)
Date & Time tt [°C] td [°C] tt -20cm [°C] tt -100cm [°C] rr [mm]
23.02.2019 14:00:00 - - - - -
23.02.2019 13:00:00 11,6 8,7 - - 0,0
23.02.2019 12:00:00 10,4 9,5 - - 0,0
23.02.2019 11:00:00 8,3 8,3 - - 0,0
23.02.2019 10:00:00 7,0 7,0 - - 0,0
23.02.2019 09:00:00 6,6 6,6 6,2 6,7 0,0
23.02.2019 08:00:00 6,0 6,0 - - 0,2
23.02.2019 07:00:00 5,9 5,9 - - 0,0
23.02.2019 06:00:00 2,0 2,0 - - 0,0
23.02.2019 05:00:00 -0,6 -0,7 - - 0,0
23.02.2019 04:00:00 -0,8 -0,9 - - 0,0
23.02.2019 03:00:00 -0,1 -0,2 - - 0,0
23.02.2019 02:00:00 0,1 -0,1 - - 0,0
23.02.2019 01:00:00 0,8 0,7 - - 0,0
23.02.2019 00:00:00 0,7 0,5 - - 0,0
22.02.2019 23:00:00 1,2 1,0 - - 0,0
22.02.2019 22:00:00 1,2 0,9 - - 0,0
22.02.2019 21:00:00 1,7 1,2 - - 0,0
22.02.2019 20:00:00 2,6 1,9 - - 0,0
22.02.2019 19:00:00 3,9 2,7 - - 0,0
22.02.2019 18:00:00 7,0 4,4 - - 0,0
22.02.2019 17:00:00 11,0 5,2 - - 0,0
22.02.2019 16:00:00 12,1 6,6 - - 0,0
22.02.2019 15:00:00 12,2 7,4 - - 0,0
22.02.2019 14:00:00 10,4 7,2 - - 0,0
22.02.2019 13:00:00 9,2 7,7 - - 0,0
22.02.2019 12:00:00 7,5 7,5 - - 0,0
22.02.2019 11:00:00 5,8 5,7 - - 0,0
22.02.2019 10:00:00 4,7 4,6 - - 0,0
22.02.2019 09:00:00 3,5 3,5 6,5 6,7 0,0
22.02.2019 08:00:00 2,7 2,7 - - 0,0
22.02.2019 07:00:00 2,8 2,8 - - 0,0
22.02.2019 06:00:00 2,2 2,2 - - 0,0
22.02.2019 05:00:00 0,7 0,6 - - 0,0
22.02.2019 04:00:00 1,4 1,3 - - 0,0
22.02.2019 03:00:00 1,6 1,3 - - 0,0
22.02.2019 02:00:00 2,4 2,0 - - 0,0
22.02.2019 01:00:00 4,0 3,5 - - 0,0
22.02.2019 00:00:00 5,5 5,0 - - 0,0
21.02.2019 23:00:00 6,8 6,4 - - 0,0
21.02.2019 22:00:00 6,8 6,7 - - 0,0
21.02.2019 21:00:00 4,2 3,7 - - 0,0
21.02.2019 20:00:00 5,6 4,8 - - 0,0
21.02.2019 19:00:00 8,5 6,6 - - 0,0
21.02.2019 18:00:00 9,8 7,0 - - 0,0
21.02.2019 17:00:00 11,8 8,0 - - 0,0
21.02.2019 16:00:00 13,7 8,2 - - 0,0
21.02.2019 15:00:00 14,7 8,3 - - 0,0
21.02.2019 14:00:00 14,9 8,8 - - 0,0
21.02.2019 13:00:00 13,8 8,7 - - 0,0
21.02.2019 12:00:00 13,3 8,8 - - 0,0
21.02.2019 11:00:00 11,7 8,5 - - 0,0
21.02.2019 10:00:00 10,3 8,2 - - 0,0
21.02.2019 09:00:00 9,9 8,3 6,2 6,7 0,0
21.02.2019 08:00:00 9,2 7,9 - - 0,0
21.02.2019 07:00:00 8,7 7,4 - - 0,0
21.02.2019 06:00:00 8,3 7,1 - - 0,0
21.02.2019 05:00:00 8,1 6,7 - - 0,0
21.02.2019 04:00:00 7,5 5,9 - - 0,0
21.02.2019 03:00:00 8,7 6,6 - - 0,0
21.02.2019 02:00:00 8,5 6,7 - - 0,0
21.02.2019 01:00:00 8,7 6,4 - - 0,0
21.02.2019 00:00:00 8,3 6,3 - - 0,0
20.02.2019 23:00:00 8,5 6,3 - - 0,0
20.02.2019 22:00:00 9,2 6,4 - - 0,0
20.02.2019 21:00:00 9,4 6,5 - - 0,0
20.02.2019 20:00:00 9,3 6,4 - - 0,0
20.02.2019 19:00:00 9,0 6,1 - - 0,0
20.02.2019 18:00:00 9,7 5,8 - - 0,0
20.02.2019 17:00:00 10,6 5,7 - - 0,0
20.02.2019 16:00:00 11,5 6,3 - - 0,0
20.02.2019 15:00:00 - - - - -
20.02.2019 14:00:00 - - - - -
20.02.2019 13:00:00 - - - - -
20.02.2019 12:00:00 11,0 5,8 - - 0,0
20.02.2019 11:00:00 10,5 6,0 - - 0,0
20.02.2019 10:00:00 10,3 6,7 - - 0,0
20.02.2019 09:00:00 8,8 6,5 5,7 6,7 0,0
20.02.2019 08:00:00 8,1 6,6 - - 0,0
20.02.2019 07:00:00 7,8 6,2 - - 0,0
20.02.2019 06:00:00 7,5 6,0 - - 0,0
20.02.2019 05:00:00 7,3 5,7 - - 0,0
20.02.2019 04:00:00 7,2 5,6 - - 0,2
20.02.2019 03:00:00 7,1 5,7 - - 0,0
20.02.2019 02:00:00 7,1 5,5 - - 0,0
20.02.2019 01:00:00 7,1 5,0 - - 0,0
20.02.2019 00:00:00 7,3 5,1 - - 0,0
19.02.2019 23:00:00 7,2 5,0 - - 0,0
19.02.2019 22:00:00 7,1 4,9 - - 0,0
19.02.2019 21:00:00 7,1 4,4 - - 0,0
19.02.2019 20:00:00 7,3 4,0 - - 0,0
19.02.2019 19:00:00 7,8 3,9 - - 0,0
19.02.2019 18:00:00 8,0 3,6 - - 0,0
19.02.2019 17:00:00 8,6 3,5 - - 0,0
19.02.2019 16:00:00 9,1 3,4 - - 0,0
19.02.2019 15:00:00 9,7 3,1 - - 0,0
19.02.2019 14:00:00 9,2 3,4 - - 0,0
19.02.2019 13:00:00 9,2 2,7 - - 0,0
19.02.2019 12:00:00 9,1 3,6 - - 0,0
19.02.2019 11:00:00 7,9 4,7 - - 0,0
19.02.2019 10:00:00 6,8 4,9 - - 0,0
19.02.2019 09:00:00 4,6 4,2 5,7 6,5 0,2
19.02.2019 08:00:00 3,3 3,2 - - 0,0
19.02.2019 07:00:00 3,3 3,3 - - 0,0
19.02.2019 06:00:00 1,5 1,4 - - 0,0
19.02.2019 05:00:00 1,2 1,0 - - 0,0
19.02.2019 04:00:00 2,0 1,8 - - 0,0
19.02.2019 03:00:00 2,7 2,5 - - 0,0
19.02.2019 02:00:00 2,6 2,6 - - 0,0
19.02.2019 01:00:00 0,8 0,6 - - 0,0
19.02.2019 00:00:00 0,4 -0,2 - - 0,0
18.02.2019 23:00:00 2,0 1,2 - - 0,0
18.02.2019 22:00:00 3,9 2,3 - - 0,0
18.02.2019 21:00:00 4,7 3,0 - - 0,0
18.02.2019 20:00:00 5,6 3,1 - - 0,0
18.02.2019 19:00:00 4,8 3,2 - - 0,0
18.02.2019 18:00:00 5,4 4,0 - - 0,0
18.02.2019 17:00:00 7,5 5,9 - - 0,0
18.02.2019 16:00:00 7,7 6,1 - - 0,0
18.02.2019 15:00:00 7,4 5,8 - - 2,6
18.02.2019 14:00:00 8,8 5,0 - - 0,6
18.02.2019 13:00:00 10,3 5,7 - - 0,0
18.02.2019 12:00:00 10,2 5,8 - - 0,0
18.02.2019 11:00:00 10,0 6,7 - - 0,0
18.02.2019 10:00:00 9,6 7,1 - - 0,0
18.02.2019 09:00:00 8,2 6,9 5,7 6,5 0,0
18.02.2019 08:00:00 7,3 6,3 - - 0,0
18.02.2019 07:00:00 6,5 5,8 - - 0,0
18.02.2019 06:00:00 6,5 5,7 - - 0,0
18.02.2019 05:00:00 7,0 6,2 - - 0,0
18.02.2019 04:00:00 7,0 6,9 - - 0,0
18.02.2019 03:00:00 4,1 4,0 - - 0,0
18.02.2019 02:00:00 4,3 3,7 - - 0,0
18.02.2019 01:00:00 6,1 5,2 - - 0,0
18.02.2019 00:00:00 6,7 6,2 - - 0,0
17.02.2019 23:00:00 6,1 5,2 - - 0,0
17.02.2019 22:00:00 7,5 6,1 - - 0,0
17.02.2019 21:00:00 8,3 6,4 - - 0,0
17.02.2019 20:00:00 9,0 6,6 - - 0,0
17.02.2019 19:00:00 9,2 6,2 - - 0,0
17.02.2019 18:00:00 10,2 6,9 - - 0,0
17.02.2019 17:00:00 10,9 7,6 - - 0,0
17.02.2019 16:00:00 11,4 8,2 - - 0,0
17.02.2019 15:00:00 11,8 8,2 - - 0,0
17.02.2019 14:00:00 11,8 8,5 - - 0,0

tt = temperature
td = dewpoint
tt -20cm = temperature -20cm
tt -100cm = temperature -100cm
rr = precipitation

Next stations